Terminal Aerodrome Forecast
Issued by NWS Northern Indiana

Home | Current Version | Previous Version | Graphics & Text | Print | Product List | Glossary On
Versions: 1 2 3 4 5 6 7 8 9 10 11 12
280
FTUS43 KIWX 221120
TAFFWA
TAF
KFWA 221120Z 2212/2312 18006KT P6SM BKN250
     FM221700 18012G18KT P6SM BKN250
     FM230000 19010KT P6SM BKN080
     FM230600 18006KT 5SM -RA BR OVC035=

USA.gov is the U.S. government's official web portal to all federal, state and local government web resources and services.